Bloomingburg, New York
Current Conditions -  °F | °C
As of 6:54 PM on Friday 28 Nov 2014 (Local Time) from KMGJ Reporting Station
Clear Clear  
Wind Chill: 12°   Ceiling: Unl
Heat Index: 19°   Visibility: 10mi
Dew Point: 14°   Wind: 5mph
Humidity: 81%   Direction: 210°SSW
Pressure: 30.22"   Gusts: NA
Location:  41.55°N, 74.44°W
Report Text: KMGJ 282354Z AUTO 21004KT 10SM CLR M07/M10 A3022 RMK AO2 SLP238 T10721100 10000 21078 51014 TSNO $
Loading
Personal Weather Stations






























Interactive Weather Map New forecast layout! Learn more

10-Day Weather Forecast

Advertisements
Track Severe Weather on mobile